createdAt,value
2022-10-08T00:01:16.567Z,100044.72
2022-10-08T00:04:03.499Z,100040.72
2022-10-08T00:06:32.161Z,100039.47
2022-10-08T00:09:04.870Z,100039.53
2022-10-08T00:11:34.557Z,100026.69
2022-10-08T00:14:02.237Z,100028.75
2022-10-08T00:16:38.578Z,100034.00
2022-10-08T00:19:08.693Z,100021.53
2022-10-08T00:21:37.307Z,100046.19
2022-10-08T00:24:06.345Z,100042.31
2022-10-08T00:26:38.558Z,100037.59
2022-10-08T00:29:09.883Z,100040.00
2022-10-08T00:31:40.572Z,100030.00
2022-10-08T00:34:12.854Z,100040.16
2022-10-08T00:36:40.897Z,100029.63
2022-10-08T00:39:11.743Z,100043.09
2022-10-08T00:41:39.401Z,100038.75
2022-10-08T00:44:43.846Z,100037.63
2022-10-08T00:47:24.882Z,100036.44
2022-10-08T00:49:55.656Z,100026.38
2022-10-08T00:52:23.871Z,100036.88
2022-10-08T00:54:51.566Z,100038.81
2022-10-08T00:57:20.385Z,100040.72
2022-10-08T00:59:47.469Z,100039.50
2022-10-08T01:02:15.247Z,100031.22
2022-10-08T01:04:43.204Z,100040.59
2022-10-08T01:07:23.057Z,100037.56
2022-10-08T01:10:11.299Z,100042.97
2022-10-08T01:12:47.844Z,100043.44
2022-10-08T01:15:40.892Z,100036.38
2022-10-08T01:18:12.524Z,100036.63
2022-10-08T01:20:51.719Z,100046.78
2022-10-08T01:23:37.618Z,100046.41
2022-10-08T01:26:52.108Z,100056.94
2022-10-08T01:29:25.455Z,100059.38
2022-10-08T01:32:03.520Z,100058.56
2022-10-08T01:34:37.280Z,100051.78
2022-10-08T01:37:10.056Z,100056.53
2022-10-08T01:39:38.847Z,100051.91
2022-10-08T01:42:08.076Z,100061.22
2022-10-08T01:44:50.328Z,100054.97
2022-10-08T01:47:20.760Z,100046.34
2022-10-08T01:49:56.813Z,100055.50
2022-10-08T01:52:27.759Z,100049.09
2022-10-08T01:55:00.784Z,100030.91
2022-10-08T01:57:29.236Z,100050.44
2022-10-08T02:00:03.341Z,100054.59
2022-10-08T02:02:39.570Z,100046.09
2022-10-08T02:05:07.132Z,100050.69
2022-10-08T02:07:37.478Z,100058.34
2022-10-08T02:10:19.304Z,100036.84
2022-10-08T02:12:46.583Z,100047.63
2022-10-08T02:15:17.545Z,100045.97
2022-10-08T02:18:10.839Z,100054.00
2022-10-08T02:20:53.639Z,100059.56
2022-10-08T02:23:24.683Z,100055.06
2022-10-08T02:25:55.338Z,100052.28
2022-10-08T02:28:46.630Z,100060.84
2022-10-08T02:31:31.886Z,100065.38
2022-10-08T02:34:09.242Z,100061.03
2022-10-08T02:36:39.396Z,100067.03
2022-10-08T02:39:06.607Z,100064.34
2022-10-08T02:41:53.906Z,100075.72
2022-10-08T02:44:24.771Z,100067.03
2022-10-08T02:46:54.296Z,100061.66
2022-10-08T02:49:26.237Z,100066.84
2022-10-08T02:51:54.981Z,100066.66
2022-10-08T02:54:23.790Z,100055.91
2022-10-08T02:57:22.174Z,100062.56
2022-10-08T02:59:51.416Z,100053.88
2022-10-08T03:02:27.869Z,100053.88
2022-10-08T03:04:59.487Z,100060.06
2022-10-08T03:07:31.200Z,100054.69
2022-10-08T03:09:59.472Z,100055.81
2022-10-08T03:12:26.725Z,100056.63
2022-10-08T03:14:54.047Z,100056.81
2022-10-08T03:17:42.474Z,100057.88
2022-10-08T03:20:10.428Z,100060.38
2022-10-08T03:22:38.150Z,100056.50
2022-10-08T03:25:05.585Z,100064.72
2022-10-08T03:27:35.219Z,100062.69
2022-10-08T03:30:03.156Z,100059.59
2022-10-08T03:32:31.589Z,100058.59
2022-10-08T03:34:58.592Z,100061.09
2022-10-08T03:37:25.531Z,100057.38
2022-10-08T03:39:52.585Z,100058.41
2022-10-08T03:42:19.744Z,100059.25
2022-10-08T03:44:46.667Z,100056.56
2022-10-08T03:47:13.636Z,100062.56
2022-10-08T03:49:41.350Z,100059.09
2022-10-08T03:52:08.337Z,100068.63
2022-10-08T03:54:36.235Z,100066.75
2022-10-08T03:57:03.613Z,100067.41
2022-10-08T03:59:30.520Z,100058.31
2022-10-08T04:01:57.517Z,100067.81
2022-10-08T04:04:25.754Z,100059.97
2022-10-08T04:06:53.012Z,100069.09
2022-10-08T04:09:19.908Z,100067.88
2022-10-08T04:11:46.923Z,100066.66
2022-10-08T04:14:13.827Z,100070.81
2022-10-08T04:16:40.794Z,100061.72
2022-10-08T04:19:07.818Z,100057.63
2022-10-08T04:21:34.752Z,100058.28
2022-10-08T04:24:01.762Z,100067.59
2022-10-08T04:26:28.922Z,100065.53
2022-10-08T04:28:55.851Z,100065.53
2022-10-08T04:31:23.594Z,100071.53
2022-10-08T04:33:51.919Z,100071.53
2022-10-08T04:36:22.193Z,100061.44
2022-10-08T04:38:49.562Z,100062.25
2022-10-08T04:41:22.532Z,100065.59
2022-10-08T04:43:50.511Z,100075.09
2022-10-08T04:46:19.352Z,100067.88
2022-10-08T04:48:54.572Z,100077.41
2022-10-08T04:51:23.513Z,100067.69
2022-10-08T04:53:50.980Z,100070.81
2022-10-08T04:56:25.687Z,100075.97
2022-10-08T04:58:55.222Z,100074.94
2022-10-08T05:01:26.061Z,100077.22
2022-10-08T05:03:55.359Z,100085.75
2022-10-08T05:06:26.783Z,100079.16
2022-10-08T05:08:58.703Z,100082.06
2022-10-08T05:11:26.989Z,100084.34
2022-10-08T05:13:55.065Z,100086.63
2022-10-08T05:16:22.810Z,100082.31
2022-10-08T05:18:52.037Z,100080.72
2022-10-08T05:21:24.626Z,100086.34
2022-10-08T05:24:03.580Z,100085.28
2022-10-08T05:27:08.562Z,100100.00
2022-10-08T05:29:24.906Z,100087.44
2022-10-08T05:31:52.610Z,100099.00
2022-10-08T05:34:19.823Z,100100.69
2022-10-08T05:36:46.724Z,100103.84
2022-10-08T05:39:14.027Z,100101.19
2022-10-08T05:41:43.780Z,100102.44
2022-10-08T05:44:13.211Z,100095.44
2022-10-08T05:46:41.032Z,100092.78
2022-10-08T05:49:09.313Z,100098.75
2022-10-08T05:51:36.569Z,100096.91
2022-10-08T05:54:04.578Z,100098.44
2022-10-08T05:56:31.950Z,100097.81
2022-10-08T05:58:59.169Z,100089.75
2022-10-08T06:01:28.698Z,100089.78
2022-10-08T06:04:07.804Z,100096.19
2022-10-08T06:06:37.284Z,100098.06
2022-10-08T06:09:05.166Z,100092.06
2022-10-08T06:11:34.610Z,100095.75
2022-10-08T06:14:15.224Z,100100.31
2022-10-08T06:16:43.434Z,100088.09
2022-10-08T06:19:10.938Z,100090.09
2022-10-08T06:21:38.101Z,100092.22
2022-10-08T06:24:08.003Z,100097.84
2022-10-08T06:26:38.496Z,100097.22
2022-10-08T06:29:14.751Z,100099.28
2022-10-08T06:31:42.454Z,100100.31
2022-10-08T06:34:11.699Z,100092.25
2022-10-08T06:36:39.176Z,100101.34
2022-10-08T06:39:10.903Z,100097.59
2022-10-08T06:41:38.805Z,100096.53
2022-10-08T06:44:11.470Z,100099.19
2022-10-08T06:46:38.539Z,100099.13
2022-10-08T06:49:06.365Z,100094.47
2022-10-08T06:51:34.419Z,100091.88
2022-10-08T06:54:07.270Z,100085.94
2022-10-08T06:56:39.030Z,100088.75
2022-10-08T06:59:07.345Z,100094.56
2022-10-08T07:01:35.539Z,100083.25
2022-10-08T07:04:05.272Z,100089.16
2022-10-08T07:06:32.680Z,100087.59
2022-10-08T07:09:02.945Z,100090.69
2022-10-08T07:11:32.260Z,100079.78
2022-10-08T07:14:01.981Z,100073.22
2022-10-08T07:16:35.222Z,100099.28
2022-10-08T07:19:03.547Z,100083.22
2022-10-08T07:21:31.138Z,100081.34
2022-10-08T07:24:02.286Z,100078.72
2022-10-08T07:26:32.867Z,100073.63
2022-10-08T07:29:17.138Z,100084.72
2022-10-08T07:31:44.481Z,100088.38
2022-10-08T07:34:13.043Z,100083.41
2022-10-08T07:36:41.112Z,100077.22
2022-10-08T07:39:12.032Z,100069.25
2022-10-08T07:41:41.704Z,100065.97
2022-10-08T07:44:12.273Z,100078.50
2022-10-08T07:46:44.082Z,100081.50
2022-10-08T07:49:11.600Z,100064.66
2022-10-08T07:51:39.512Z,100065.09
2022-10-08T07:54:09.494Z,100064.94
2022-10-08T07:56:36.879Z,100067.91
2022-10-08T07:59:07.843Z,100065.09
2022-10-08T08:01:37.965Z,100064.16
2022-10-08T08:04:10.480Z,100069.59
2022-10-08T08:06:45.582Z,100062.81
2022-10-08T08:09:14.564Z,100081.88
2022-10-08T08:11:41.704Z,100055.19
2022-10-08T08:14:08.964Z,100050.97
2022-10-08T08:16:36.130Z,100060.09
2022-10-08T08:19:03.982Z,100050.19
2022-10-08T08:21:34.031Z,100048.00
2022-10-08T08:24:12.144Z,100047.88
2022-10-08T08:26:41.366Z,100052.94
2022-10-08T08:29:14.006Z,100047.22
2022-10-08T08:31:46.271Z,100044.50
2022-10-08T08:34:16.824Z,100051.41
2022-10-08T08:36:46.190Z,100037.63
2022-10-08T08:39:22.118Z,100060.31
2022-10-08T08:42:02.291Z,100052.63
2022-10-08T08:44:39.819Z,100036.81
2022-10-08T08:47:06.792Z,100019.03
2022-10-08T08:49:46.969Z,100043.34
2022-10-08T08:52:16.615Z,100043.22
2022-10-08T08:54:47.214Z,100026.38
2022-10-08T08:57:37.141Z,100019.88
2022-10-08T09:00:22.388Z,100053.50
2022-10-08T09:03:04.295Z,100043.31
2022-10-08T09:05:34.172Z,100025.72
2022-10-08T09:08:05.853Z,100025.22
2022-10-08T09:10:41.207Z,100015.19
2022-10-08T09:13:16.144Z,100001.88
2022-10-08T09:15:47.408Z,100001.03
2022-10-08T09:18:15.508Z,99985.91
2022-10-08T09:20:43.257Z,99976.56
2022-10-08T09:23:30.360Z,99984.09
2022-10-08T09:26:24.194Z,100000.25
2022-10-08T09:28:56.580Z,99983.50
2022-10-08T09:31:40.417Z,99978.47
2022-10-08T09:34:10.228Z,99995.63
2022-10-08T09:36:52.248Z,99975.97
2022-10-08T09:39:24.266Z,99985.06
2022-10-08T09:42:15.700Z,99988.06
2022-10-08T09:44:52.630Z,99993.44
2022-10-08T09:47:21.761Z,99968.84
2022-10-08T09:50:21.545Z,99979.78
2022-10-08T09:52:50.644Z,99982.38
2022-10-08T09:55:22.784Z,99971.16
2022-10-08T09:57:52.562Z,99974.75
2022-10-08T10:00:30.529Z,99957.31
2022-10-08T10:02:59.285Z,99957.91
2022-10-08T10:05:31.716Z,99948.28
2022-10-08T10:08:01.599Z,99938.44
2022-10-08T10:10:45.267Z,99969.66
2022-10-08T10:13:22.764Z,99930.16
2022-10-08T10:15:59.024Z,99933.31
2022-10-08T10:18:52.905Z,99925.38
2022-10-08T10:21:48.696Z,99932.41
2022-10-08T10:24:21.227Z,99920.56
2022-10-08T10:26:50.054Z,99939.59
2022-10-08T10:29:22.971Z,99931.03
2022-10-08T10:31:54.899Z,99923.09
2022-10-08T10:34:27.948Z,99913.09
2022-10-08T10:37:01.243Z,99930.75
2022-10-08T10:39:34.391Z,99908.69
2022-10-08T10:42:08.477Z,99903.69
2022-10-08T10:44:54.717Z,99891.53
2022-10-08T10:47:31.828Z,99903.63
2022-10-08T10:50:01.280Z,99887.94
2022-10-08T10:52:43.278Z,99883.72
2022-10-08T10:55:36.120Z,99892.41
2022-10-08T10:58:14.147Z,99911.75
2022-10-08T11:01:02.288Z,99898.00
2022-10-08T11:03:38.156Z,99891.47
2022-10-08T11:06:50.269Z,99881.84
2022-10-08T11:09:35.788Z,99876.69
2022-10-08T11:15:10.734Z,99866.72
2022-10-08T11:17:52.269Z,99854.53
2022-10-08T11:20:41.624Z,99867.13
2022-10-08T11:23:39.076Z,99864.97
2022-10-08T11:26:28.256Z,99859.34
2022-10-08T11:29:11.369Z,99851.41
2022-10-08T11:31:48.986Z,99853.75
2022-10-08T11:34:32.378Z,99833.72
2022-10-08T11:37:29.547Z,99835.03
2022-10-08T11:40:19.817Z,99828.44
2022-10-08T11:43:03.383Z,99862.13
2022-10-08T11:45:40.035Z,99841.91
2022-10-08T11:48:25.890Z,99837.41
2022-10-08T11:51:24.109Z,99835.25
2022-10-08T11:54:11.589Z,99808.44
2022-10-08T11:56:46.736Z,99821.88
2022-10-08T11:59:40.293Z,99808.09
2022-10-08T12:02:26.560Z,99797.19
2022-10-08T12:04:55.298Z,99811.72
2022-10-08T12:07:24.582Z,99789.56
2022-10-08T12:10:07.860Z,99780.72
2022-10-08T12:12:50.495Z,99791.00
2022-10-08T12:15:26.250Z,99796.75
2022-10-08T12:17:59.470Z,99789.31
2022-10-08T12:20:38.224Z,99788.88
2022-10-08T12:23:34.540Z,99795.25
2022-10-08T12:26:02.717Z,99793.50
2022-10-08T12:28:32.977Z,99776.91
2022-10-08T12:31:21.883Z,99791.81
2022-10-08T12:34:21.984Z,99786.63
2022-10-08T12:37:03.313Z,99761.50
2022-10-08T12:39:37.641Z,99750.34
2022-10-08T12:42:13.545Z,99766.59
2022-10-08T12:45:26.277Z,99771.50
2022-10-08T12:47:56.082Z,99766.91
2022-10-08T12:50:39.754Z,99763.97
2022-10-08T12:53:07.959Z,99747.31
2022-10-08T12:55:52.216Z,99740.78
2022-10-08T12:58:22.535Z,99743.69
2022-10-08T13:00:56.119Z,99748.56
2022-10-08T13:03:23.174Z,99739.91
2022-10-08T13:05:50.315Z,99726.13
2022-10-08T13:08:18.083Z,99743.22
2022-10-08T13:10:45.131Z,99735.50
2022-10-08T13:13:38.376Z,99734.84
2022-10-08T13:16:17.864Z,99733.97
2022-10-08T13:18:57.727Z,99696.63
2022-10-08T13:21:37.122Z,99727.97
2022-10-08T13:24:11.056Z,99716.22
2022-10-08T13:26:41.242Z,99713.19
2022-10-08T13:29:21.958Z,99704.38
2022-10-08T13:31:56.796Z,99718.38
2022-10-08T13:34:26.425Z,99700.91
2022-10-08T13:36:58.054Z,99699.13
2022-10-08T13:39:31.056Z,99708.84
2022-10-08T13:42:00.357Z,99712.44
2022-10-08T13:44:28.556Z,99713.47
2022-10-08T13:46:58.937Z,99715.25
2022-10-08T13:49:29.680Z,99710.78
2022-10-08T13:51:58.797Z,99708.66
2022-10-08T13:54:31.025Z,99706.63
2022-10-08T13:56:58.331Z,99713.81
2022-10-08T13:59:30.253Z,99703.50
2022-10-08T14:01:58.985Z,99692.63
2022-10-08T14:04:31.816Z,99700.88
2022-10-08T14:06:59.674Z,99700.50
2022-10-08T14:09:29.006Z,99697.78
2022-10-08T14:11:59.434Z,99694.63
2022-10-08T14:14:27.710Z,99693.88
2022-10-08T14:16:54.754Z,99684.06
2022-10-08T14:19:22.051Z,99686.81
2022-10-08T14:21:50.953Z,99692.47
2022-10-08T14:24:19.229Z,99685.03
2022-10-08T14:26:46.144Z,99693.50
2022-10-08T14:29:13.229Z,99675.75
2022-10-08T14:31:40.322Z,99691.59
2022-10-08T14:34:32.272Z,99690.13
2022-10-08T14:37:00.095Z,99683.03
2022-10-08T14:39:27.467Z,99677.41
2022-10-08T14:41:55.391Z,99680.34
2022-10-08T14:44:48.680Z,99673.13
2022-10-08T14:47:16.857Z,99677.34
2022-10-08T14:49:43.734Z,99675.34
2022-10-08T14:52:10.907Z,99673.25
2022-10-08T14:54:37.940Z,99666.09
2022-10-08T14:57:04.980Z,99675.72
2022-10-08T14:59:34.237Z,99659.50
2022-10-08T15:02:03.310Z,99678.31
2022-10-08T15:04:35.344Z,99668.81
2022-10-08T15:07:02.271Z,99670.00
2022-10-08T15:09:32.039Z,99665.16
2022-10-08T15:11:58.913Z,99672.22
2022-10-08T15:14:26.157Z,99669.50
2022-10-08T15:16:54.213Z,99669.50
2022-10-08T15:19:24.037Z,99669.03
2022-10-08T15:21:51.860Z,99668.91
2022-10-08T15:24:19.355Z,99668.91
2022-10-08T15:26:49.322Z,99670.94
2022-10-08T15:29:16.784Z,99661.41
2022-10-08T15:31:44.192Z,99665.03
2022-10-08T15:34:19.459Z,99659.63
2022-10-08T15:36:50.074Z,99659.25
2022-10-08T15:39:27.246Z,99658.56
2022-10-08T15:41:55.608Z,99657.38
2022-10-08T15:44:27.568Z,99663.72
2022-10-08T15:47:16.203Z,99658.06
2022-10-08T15:49:48.403Z,99669.53
2022-10-08T15:52:33.408Z,99666.13
2022-10-08T15:55:25.548Z,99662.31
2022-10-08T15:57:52.738Z,99660.78
2022-10-08T16:00:19.619Z,99658.28
2022-10-08T16:02:47.047Z,99660.84
2022-10-08T16:05:15.100Z,99661.91
2022-10-08T16:07:42.495Z,99652.75
2022-10-08T16:10:09.481Z,99660.72
2022-10-08T16:12:37.898Z,99660.72
2022-10-08T16:15:05.970Z,99664.09
2022-10-08T16:17:52.951Z,99661.72
2022-10-08T16:20:19.945Z,99669.44
2022-10-08T16:22:47.009Z,99666.22
2022-10-08T16:25:19.422Z,99656.25
2022-10-08T16:27:47.676Z,99661.06
2022-10-08T16:33:00.764Z,99652.94
2022-10-08T16:35:28.836Z,99653.19
2022-10-08T16:37:55.737Z,99653.81
2022-10-08T16:40:22.627Z,99654.84
2022-10-08T16:42:50.183Z,99646.53
2022-10-08T16:45:17.473Z,99634.50
2022-10-08T16:47:44.392Z,99647.16
2022-10-08T16:50:11.615Z,99644.53
2022-10-08T16:52:38.493Z,99643.50
2022-10-08T16:55:05.734Z,99644.66
2022-10-08T16:57:33.872Z,99646.00
2022-10-08T17:00:00.846Z,99638.56
2022-10-08T17:02:27.979Z,99639.84
2022-10-08T17:04:55.022Z,99630.78
2022-10-08T17:07:24.920Z,99637.25
2022-10-08T17:09:54.351Z,99634.16
2022-10-08T17:12:22.056Z,99634.41
2022-10-08T17:14:49.105Z,99628.59
2022-10-08T17:17:17.095Z,99631.59
2022-10-08T17:19:44.921Z,99632.88
2022-10-08T17:22:13.208Z,99622.56
2022-10-08T17:24:42.381Z,99623.22
2022-10-08T17:27:09.549Z,99626.13
2022-10-08T17:29:36.858Z,99631.75
2022-10-08T17:32:06.464Z,99618.94
2022-10-08T17:37:21.768Z,99613.44
2022-10-08T17:39:48.731Z,99608.72
2022-10-08T17:42:15.688Z,99618.31
2022-10-08T17:44:43.344Z,99608.56
2022-10-08T17:47:10.345Z,99608.41
2022-10-08T17:49:37.234Z,99604.13
2022-10-08T17:52:04.239Z,99610.19
2022-10-08T17:54:31.283Z,99609.13
2022-10-08T17:57:00.617Z,99602.28
2022-10-08T17:59:30.194Z,99601.22
2022-10-08T18:02:03.210Z,99598.53
2022-10-08T18:04:30.451Z,99603.53
2022-10-08T18:07:02.504Z,99604.81
2022-10-08T18:09:30.262Z,99597.56
2022-10-08T18:12:00.168Z,99598.41
2022-10-08T18:14:27.039Z,99593.88
2022-10-08T18:16:53.969Z,99589.34
2022-10-08T18:19:21.689Z,99591.88
2022-10-08T18:21:48.737Z,99591.69
2022-10-08T18:24:18.460Z,99598.69
2022-10-08T18:26:48.315Z,99583.66
2022-10-08T18:29:15.730Z,99589.03
2022-10-08T18:31:44.089Z,99591.06
2022-10-08T18:34:17.065Z,99589.63
2022-10-08T18:36:44.556Z,99586.53
2022-10-08T18:39:14.171Z,99588.84
2022-10-08T18:41:43.619Z,99585.38
2022-10-08T18:44:13.118Z,99596.59
2022-10-08T18:46:40.131Z,99592.03
2022-10-08T18:49:07.445Z,99596.59
2022-10-08T18:51:35.767Z,99596.97
2022-10-08T18:54:02.719Z,99593.09
2022-10-08T18:56:31.664Z,99592.28
2022-10-08T18:59:01.873Z,99602.44
2022-10-08T19:01:36.532Z,99595.81
2022-10-08T19:04:10.417Z,99596.91
2022-10-08T19:09:20.899Z,99597.44
2022-10-08T19:11:50.364Z,99591.44
2022-10-08T19:14:19.923Z,99601.38
2022-10-08T19:16:48.017Z,99598.09
2022-10-08T19:19:20.240Z,99599.75
2022-10-08T19:21:48.363Z,99597.69
2022-10-08T19:24:18.508Z,99598.72
2022-10-08T19:26:46.905Z,99597.09
2022-10-08T19:29:16.531Z,99592.31
2022-10-08T19:31:47.665Z,99596.03
2022-10-08T19:34:17.042Z,99596.09
2022-10-08T19:36:44.297Z,99603.34
2022-10-08T19:39:16.632Z,99605.59
2022-10-08T19:41:45.129Z,99607.47
2022-10-08T19:44:19.431Z,99614.69
2022-10-08T19:46:46.904Z,99610.34
2022-10-08T19:49:14.563Z,99612.22
2022-10-08T19:51:41.790Z,99615.53
2022-10-08T19:54:33.940Z,99613.84
2022-10-08T19:57:03.179Z,99613.47
2022-10-08T19:59:38.266Z,99620.09
2022-10-08T20:02:05.428Z,99615.16
2022-10-08T20:04:33.903Z,99616.41
2022-10-08T20:07:16.065Z,99617.44
2022-10-08T20:09:45.607Z,99617.25
2022-10-08T20:12:12.419Z,99614.38
2022-10-08T20:14:39.651Z,99611.50
2022-10-08T20:17:06.691Z,99622.25
2022-10-08T20:19:33.687Z,99618.13
2022-10-08T20:22:00.566Z,99617.31
2022-10-08T20:24:27.635Z,99604.06
2022-10-08T20:26:54.635Z,99604.94
2022-10-08T20:29:28.689Z,99612.38
2022-10-08T20:31:58.308Z,99612.44
2022-10-08T20:34:50.189Z,99615.94
2022-10-08T20:37:20.032Z,99598.56
2022-10-08T20:39:48.259Z,99598.56
2022-10-08T20:42:15.149Z,99600.00
2022-10-08T20:44:42.034Z,99602.06
2022-10-08T20:47:09.467Z,99598.75
2022-10-08T20:49:36.356Z,99606.63
2022-10-08T20:52:04.324Z,99594.63
2022-10-08T20:54:31.352Z,99591.38
2022-10-08T20:56:58.940Z,99590.50
2022-10-08T20:59:25.985Z,99594.06
2022-10-08T21:01:52.990Z,99589.06
2022-10-08T21:04:21.025Z,99582.88
2022-10-08T21:06:50.097Z,99590.31
2022-10-08T21:09:21.434Z,99596.94
2022-10-08T21:11:48.935Z,99589.75
2022-10-08T21:14:18.542Z,99593.25
2022-10-08T21:16:45.960Z,99593.88
2022-10-08T21:19:15.412Z,99586.44
2022-10-08T21:21:42.653Z,99593.06
2022-10-08T21:24:09.795Z,99590.16
2022-10-08T21:26:41.396Z,99585.63
2022-10-08T21:29:11.201Z,99573.22
2022-10-08T21:31:39.685Z,99580.47
2022-10-08T21:34:07.299Z,99576.97
2022-10-08T21:36:37.607Z,99575.31
2022-10-08T21:39:06.912Z,99571.16
2022-10-08T21:41:36.203Z,99574.47
2022-10-08T21:44:09.257Z,99568.88
2022-10-08T21:46:39.100Z,99574.47
2022-10-08T21:49:10.820Z,99582.97
2022-10-08T21:51:38.022Z,99586.03
2022-10-08T21:54:06.845Z,99577.16
2022-10-08T21:56:36.018Z,99582.34
2022-10-08T21:59:05.177Z,99579.03
2022-10-08T22:01:42.247Z,99577.41
2022-10-08T22:04:21.861Z,99573.25
2022-10-08T22:06:52.255Z,99571.81
2022-10-08T22:09:24.256Z,99568.13
2022-10-08T22:11:52.427Z,99560.06
2022-10-08T22:14:19.977Z,99565.63
2022-10-08T22:16:47.545Z,99562.56
2022-10-08T22:19:15.677Z,99557.81
2022-10-08T22:21:42.884Z,99556.78
2022-10-08T22:24:14.915Z,99563.19
2022-10-08T22:26:45.054Z,99552.44
2022-10-08T22:29:12.617Z,99549.16
2022-10-08T22:31:42.401Z,99543.56
2022-10-08T22:34:09.424Z,99548.94
2022-10-08T22:36:40.007Z,99548.94
2022-10-08T22:39:07.322Z,99549.97
2022-10-08T22:41:34.764Z,99542.75
2022-10-08T22:44:03.720Z,99539.22
2022-10-08T22:46:34.963Z,99536.56
2022-10-08T22:49:06.666Z,99536.56
2022-10-08T22:51:34.040Z,99539.03
2022-10-08T22:54:00.977Z,99534.91
2022-10-08T22:56:29.672Z,99535.31
2022-10-08T22:58:58.897Z,99527.88
2022-10-08T23:01:26.779Z,99528.75
2022-10-08T23:03:54.149Z,99533.69
2022-10-08T23:06:26.622Z,99531.81
2022-10-08T23:09:01.287Z,99517.16
2022-10-08T23:11:28.452Z,99516.13
2022-10-08T23:13:57.938Z,99505.19
2022-10-08T23:16:26.415Z,99524.59
2022-10-08T23:19:05.429Z,99521.94
2022-10-08T23:21:34.142Z,99513.03
2022-10-08T23:24:01.391Z,99518.81
2022-10-08T23:26:28.714Z,99507.88
2022-10-08T23:28:58.412Z,99506.03
2022-10-08T23:31:27.974Z,99509.97
2022-10-08T23:33:56.518Z,99504.97
2022-10-08T23:36:26.887Z,99503.97
2022-10-08T23:38:56.770Z,99498.81
2022-10-08T23:41:24.900Z,99493.84
2022-10-08T23:43:53.007Z,99494.28
2022-10-08T23:46:22.329Z,99487.88
2022-10-08T23:48:49.775Z,99492.59
2022-10-08T23:51:19.029Z,99490.56
2022-10-08T23:53:47.378Z,99484.78
2022-10-08T23:56:14.681Z,99492.63
2022-10-08T23:58:42.093Z,99482.09
